sensor_id;sensor_type;location;lat;lon;timestamp;temperature;humidity
74364;DHT22;62797;49.740;10.154;2024-01-25T00:00:18;8.30;42.90
74364;DHT22;62797;49.740;10.154;2024-01-25T00:02:44;8.20;42.50
74364;DHT22;62797;49.740;10.154;2024-01-25T00:05:10;8.20;42.80
74364;DHT22;62797;49.740;10.154;2024-01-25T00:07:47;8.20;42.90
74364;DHT22;62797;49.740;10.154;2024-01-25T00:10:14;8.00;43.70
74364;DHT22;62797;49.740;10.154;2024-01-25T00:12:40;8.00;43.40
74364;DHT22;62797;49.740;10.154;2024-01-25T00:15:07;8.10;43.50
74364;DHT22;62797;49.740;10.154;2024-01-25T00:17:32;8.10;43.10
74364;DHT22;62797;49.740;10.154;2024-01-25T00:19:58;8.20;42.80
74364;DHT22;62797;49.740;10.154;2024-01-25T00:22:24;8.10;43.20
74364;DHT22;62797;49.740;10.154;2024-01-25T00:24:50;8.10;43.00
74364;DHT22;62797;49.740;10.154;2024-01-25T00:27:17;8.10;43.40
74364;DHT22;62797;49.740;10.154;2024-01-25T00:29:42;8.00;43.80
74364;DHT22;62797;49.740;10.154;2024-01-25T00:32:09;8.00;43.90
74364;DHT22;62797;49.740;10.154;2024-01-25T00:34:35;8.00;44.30
74364;DHT22;62797;49.740;10.154;2024-01-25T00:37:01;8.00;44.30
74364;DHT22;62797;49.740;10.154;2024-01-25T00:39:27;8.10;44.20
74364;DHT22;62797;49.740;10.154;2024-01-25T00:42:03;8.10;44.40
74364;DHT22;62797;49.740;10.154;2024-01-25T00:44:30;8.10;44.10
74364;DHT22;62797;49.740;10.154;2024-01-25T00:46:56;8.20;43.60
74364;DHT22;62797;49.740;10.154;2024-01-25T00:49:22;8.20;43.30
74364;DHT22;62797;49.740;10.154;2024-01-25T00:51:48;8.10;43.90
74364;DHT22;62797;49.740;10.154;2024-01-25T00:54:14;8.10;44.00
74364;DHT22;62797;49.740;10.154;2024-01-25T00:56:41;8.10;43.80
74364;DHT22;62797;49.740;10.154;2024-01-25T00:59:07;8.10;43.50
74364;DHT22;62797;49.740;10.154;2024-01-25T01:01:33;8.20;42.30
74364;DHT22;62797;49.740;10.154;2024-01-25T01:03:59;8.30;41.50
74364;DHT22;62797;49.740;10.154;2024-01-25T01:06:25;8.30;40.50
74364;DHT22;62797;49.740;10.154;2024-01-25T01:08:52;8.20;40.70
74364;DHT22;62797;49.740;10.154;2024-01-25T01:11:18;8.10;41.10
74364;DHT22;62797;49.740;10.154;2024-01-25T01:13:44;8.20;41.00
74364;DHT22;62797;49.740;10.154;2024-01-25T01:16:10;8.10;41.20
74364;DHT22;62797;49.740;10.154;2024-01-25T01:18:35;8.10;40.60
74364;DHT22;62797;49.740;10.154;2024-01-25T01:21:02;8.20;40.40
74364;DHT22;62797;49.740;10.154;2024-01-25T01:23:27;8.10;41.00
74364;DHT22;62797;49.740;10.154;2024-01-25T01:25:53;7.90;41.50
74364;DHT22;62797;49.740;10.154;2024-01-25T01:28:19;7.90;41.70
74364;DHT22;62797;49.740;10.154;2024-01-25T01:30:45;8.00;41.70
74364;DHT22;62797;49.740;10.154;2024-01-25T01:33:11;8.00;41.50
74364;DHT22;62797;49.740;10.154;2024-01-25T01:35:36;7.90;42.00
74364;DHT22;62797;49.740;10.154;2024-01-25T01:38:02;8.00;41.80
74364;DHT22;62797;49.740;10.154;2024-01-25T01:40:28;7.90;41.80
74364;DHT22;62797;49.740;10.154;2024-01-25T01:43:00;8.00;41.10
74364;DHT22;62797;49.740;10.154;2024-01-25T01:45:26;8.00;40.90
74364;DHT22;62797;49.740;10.154;2024-01-25T01:47:53;7.90;41.40
74364;DHT22;62797;49.740;10.154;2024-01-25T01:50:19;7.90;41.90
74364;DHT22;62797;49.740;10.154;2024-01-25T01:52:46;7.80;41.40
74364;DHT22;62797;49.740;10.154;2024-01-25T01:55:12;7.90;41.50
74364;DHT22;62797;49.740;10.154;2024-01-25T01:57:38;7.90;41.70
74364;DHT22;62797;49.740;10.154;2024-01-25T02:00:07;7.90;42.20
74364;DHT22;62797;49.740;10.154;2024-01-25T02:02:53;7.90;42.00
74364;DHT22;62797;49.740;10.154;2024-01-25T02:05:19;7.90;42.30
74364;DHT22;62797;49.740;10.154;2024-01-25T02:07:45;7.90;42.60
74364;DHT22;62797;49.740;10.154;2024-01-25T02:10:11;7.90;42.70
74364;DHT22;62797;49.740;10.154;2024-01-25T02:12:38;7.80;43.00
74364;DHT22;62797;49.740;10.154;2024-01-25T02:15:04;7.80;43.50
74364;DHT22;62797;49.740;10.154;2024-01-25T02:17:30;7.80;43.60
74364;DHT22;62797;49.740;10.154;2024-01-25T02:19:56;7.70;44.20
74364;DHT22;62797;49.740;10.154;2024-01-25T02:22:22;7.60;44.40
74364;DHT22;62797;49.740;10.154;2024-01-25T02:24:48;7.60;45.10
74364;DHT22;62797;49.740;10.154;2024-01-25T02:27:13;7.50;44.60
74364;DHT22;62797;49.740;10.154;2024-01-25T02:29:39;7.50;44.60
74364;DHT22;62797;49.740;10.154;2024-01-25T02:32:05;7.50;45.20
74364;DHT22;62797;49.740;10.154;2024-01-25T02:34:31;7.50;45.30
74364;DHT22;62797;49.740;10.154;2024-01-25T02:36:57;7.50;45.50
74364;DHT22;62797;49.740;10.154;2024-01-25T02:39:22;7.50;45.60
74364;DHT22;62797;49.740;10.154;2024-01-25T02:41:48;7.50;45.20
74364;DHT22;62797;49.740;10.154;2024-01-25T02:44:14;7.50;45.10
74364;DHT22;62797;49.740;10.154;2024-01-25T02:46:39;7.60;45.00
74364;DHT22;62797;49.740;10.154;2024-01-25T02:49:05;7.50;45.40
74364;DHT22;62797;49.740;10.154;2024-01-25T02:51:31;7.60;45.10
74364;DHT22;62797;49.740;10.154;2024-01-25T02:53:56;7.60;45.10
74364;DHT22;62797;49.740;10.154;2024-01-25T02:56:22;7.70;45.00
74364;DHT22;62797;49.740;10.154;2024-01-25T02:58:48;7.70;44.60
74364;DHT22;62797;49.740;10.154;2024-01-25T03:01:13;7.70;44.70
74364;DHT22;62797;49.740;10.154;2024-01-25T03:03:39;7.70;44.90
74364;DHT22;62797;49.740;10.154;2024-01-25T03:06:06;7.60;44.80
74364;DHT22;62797;49.740;10.154;2024-01-25T03:08:32;7.60;44.90
74364;DHT22;62797;49.740;10.154;2024-01-25T03:10:57;7.60;45.30
74364;DHT22;62797;49.740;10.154;2024-01-25T03:13:23;7.70;44.60
74364;DHT22;62797;49.740;10.154;2024-01-25T03:15:49;7.70;44.30
74364;DHT22;62797;49.740;10.154;2024-01-25T03:18:14;7.70;44.30
74364;DHT22;62797;49.740;10.154;2024-01-25T03:20:40;7.60;44.70
74364;DHT22;62797;49.740;10.154;2024-01-25T03:23:06;7.50;45.30
74364;DHT22;62797;49.740;10.154;2024-01-25T03:25:32;7.60;45.20
74364;DHT22;62797;49.740;10.154;2024-01-25T03:27:57;7.70;44.90
74364;DHT22;62797;49.740;10.154;2024-01-25T03:30:23;7.60;44.50
74364;DHT22;62797;49.740;10.154;2024-01-25T03:32:49;7.60;44.90
74364;DHT22;62797;49.740;10.154;2024-01-25T03:35:15;7.60;44.90
74364;DHT22;62797;49.740;10.154;2024-01-25T03:37:41;7.60;45.10
74364;DHT22;62797;49.740;10.154;2024-01-25T03:40:07;7.70;44.90
74364;DHT22;62797;49.740;10.154;2024-01-25T03:42:32;7.70;44.60
74364;DHT22;62797;49.740;10.154;2024-01-25T03:44:58;7.90;44.00
74364;DHT22;62797;49.740;10.154;2024-01-25T03:47:24;7.90;44.30
74364;DHT22;62797;49.740;10.154;2024-01-25T03:49:50;7.70;44.70
74364;DHT22;62797;49.740;10.154;2024-01-25T03:52:15;7.80;44.80
74364;DHT22;62797;49.740;10.154;2024-01-25T03:54:41;7.70;45.20
74364;DHT22;62797;49.740;10.154;2024-01-25T03:57:07;7.70;45.30
74364;DHT22;62797;49.740;10.154;2024-01-25T03:59:32;7.70;45.40
74364;DHT22;62797;49.740;10.154;2024-01-25T04:01:58;7.60;45.70
74364;DHT22;62797;49.740;10.154;2024-01-25T04:04:24;7.80;45.40
74364;DHT22;62797;49.740;10.154;2024-01-25T04:06:49;7.80;44.90
74364;DHT22;62797;49.740;10.154;2024-01-25T04:09:15;7.80;45.10
74364;DHT22;62797;49.740;10.154;2024-01-25T04:11:41;7.80;44.90
74364;DHT22;62797;49.740;10.154;2024-01-25T04:14:06;7.90;44.70
74364;DHT22;62797;49.740;10.154;2024-01-25T04:16:33;7.90;44.80
74364;DHT22;62797;49.740;10.154;2024-01-25T04:18:59;7.90;44.50
74364;DHT22;62797;49.740;10.154;2024-01-25T04:21:26;7.90;45.00
74364;DHT22;62797;49.740;10.154;2024-01-25T04:23:52;7.90;44.80
74364;DHT22;62797;49.740;10.154;2024-01-25T04:26:19;7.90;45.10
74364;DHT22;62797;49.740;10.154;2024-01-25T04:28:44;8.00;44.70
74364;DHT22;62797;49.740;10.154;2024-01-25T04:31:10;8.00;44.80
74364;DHT22;62797;49.740;10.154;2024-01-25T04:33:38;7.90;45.20
74364;DHT22;62797;49.740;10.154;2024-01-25T04:36:04;7.80;45.70
74364;DHT22;62797;49.740;10.154;2024-01-25T04:38:30;7.80;45.90
74364;DHT22;62797;49.740;10.154;2024-01-25T04:40:55;7.90;45.70
74364;DHT22;62797;49.740;10.154;2024-01-25T04:43:21;7.80;45.60
74364;DHT22;62797;49.740;10.154;2024-01-25T04:45:47;7.80;45.80
74364;DHT22;62797;49.740;10.154;2024-01-25T04:48:13;8.00;45.00
74364;DHT22;62797;49.740;10.154;2024-01-25T04:50:39;7.90;45.30
74364;DHT22;62797;49.740;10.154;2024-01-25T04:53:04;7.80;45.50
74364;DHT22;62797;49.740;10.154;2024-01-25T04:55:30;7.90;45.30
74364;DHT22;62797;49.740;10.154;2024-01-25T04:57:56;7.90;45.20
74364;DHT22;62797;49.740;10.154;2024-01-25T05:00:22;8.00;44.80
74364;DHT22;62797;49.740;10.154;2024-01-25T05:02:48;7.90;45.10
74364;DHT22;62797;49.740;10.154;2024-01-25T05:05:15;7.80;45.40
74364;DHT22;62797;49.740;10.154;2024-01-25T05:07:41;7.70;45.80
74364;DHT22;62797;49.740;10.154;2024-01-25T05:10:07;7.80;45.60
74364;DHT22;62797;49.740;10.154;2024-01-25T05:12:33;7.70;46.00
74364;DHT22;62797;49.740;10.154;2024-01-25T05:14:59;7.60;46.40
74364;DHT22;62797;49.740;10.154;2024-01-25T05:17:24;7.60;46.90
74364;DHT22;62797;49.740;10.154;2024-01-25T05:19:50;7.60;46.80
74364;DHT22;62797;49.740;10.154;2024-01-25T05:22:16;7.50;47.20
74364;DHT22;62797;49.740;10.154;2024-01-25T05:24:42;7.50;47.50
74364;DHT22;62797;49.740;10.154;2024-01-25T05:27:09;7.50;47.50
74364;DHT22;62797;49.740;10.154;2024-01-25T05:29:35;7.50;47.30
74364;DHT22;62797;49.740;10.154;2024-01-25T05:35:41;7.50;47.00
74364;DHT22;62797;49.740;10.154;2024-01-25T05:38:07;7.40;48.10
74364;DHT22;62797;49.740;10.154;2024-01-25T05:40:33;7.50;47.40
74364;DHT22;62797;49.740;10.154;2024-01-25T05:42:59;7.30;48.00
74364;DHT22;62797;49.740;10.154;2024-01-25T05:45:25;7.30;48.40
74364;DHT22;62797;49.740;10.154;2024-01-25T05:47:51;7.30;48.20
74364;DHT22;62797;49.740;10.154;2024-01-25T05:50:18;7.40;47.80
74364;DHT22;62797;49.740;10.154;2024-01-25T05:52:44;7.20;48.40
74364;DHT22;62797;49.740;10.154;2024-01-25T05:55:10;7.10;49.40
74364;DHT22;62797;49.740;10.154;2024-01-25T05:57:37;7.10;49.60
74364;DHT22;62797;49.740;10.154;2024-01-25T06:00:03;7.00;49.60
74364;DHT22;62797;49.740;10.154;2024-01-25T06:02:33;7.00;49.90
74364;DHT22;62797;49.740;10.154;2024-01-25T06:04:59;6.90;50.60
74364;DHT22;62797;49.740;10.154;2024-01-25T06:07:26;6.80;50.90
74364;DHT22;62797;49.740;10.154;2024-01-25T06:09:52;6.70;51.60
74364;DHT22;62797;49.740;10.154;2024-01-25T06:12:18;6.80;51.00
74364;DHT22;62797;49.740;10.154;2024-01-25T06:14:44;6.80;51.60
74364;DHT22;62797;49.740;10.154;2024-01-25T06:19:55;6.80;51.40
74364;DHT22;62797;49.740;10.154;2024-01-25T06:22:21;6.80;51.20
74364;DHT22;62797;49.740;10.154;2024-01-25T06:24:47;6.80;51.40
74364;DHT22;62797;49.740;10.154;2024-01-25T06:27:12;6.80;51.20
74364;DHT22;62797;49.740;10.154;2024-01-25T06:29:38;6.70;51.00
74364;DHT22;62797;49.740;10.154;2024-01-25T06:32:06;6.60;51.60
74364;DHT22;62797;49.740;10.154;2024-01-25T06:34:32;6.50;51.80
74364;DHT22;62797;49.740;10.154;2024-01-25T06:36:58;6.30;53.30
74364;DHT22;62797;49.740;10.154;2024-01-25T06:39:24;6.20;54.30
74364;DHT22;62797;49.740;10.154;2024-01-25T06:41:50;6.30;54.90
74364;DHT22;62797;49.740;10.154;2024-01-25T06:44:16;6.30;54.10
74364;DHT22;62797;49.740;10.154;2024-01-25T06:46:42;6.30;53.90
74364;DHT22;62797;49.740;10.154;2024-01-25T06:49:08;6.30;53.50
74364;DHT22;62797;49.740;10.154;2024-01-25T06:51:34;6.30;53.40
74364;DHT22;62797;49.740;10.154;2024-01-25T06:54:00;6.40;52.90
74364;DHT22;62797;49.740;10.154;2024-01-25T06:56:26;6.30;53.00
74364;DHT22;62797;49.740;10.154;2024-01-25T06:58:52;6.20;53.10
74364;DHT22;62797;49.740;10.154;2024-01-25T07:01:24;6.00;53.80
74364;DHT22;62797;49.740;10.154;2024-01-25T07:03:50;5.80;54.40
74364;DHT22;62797;49.740;10.154;2024-01-25T07:06:18;5.70;55.00
74364;DHT22;62797;49.740;10.154;2024-01-25T07:08:46;5.60;54.90
74364;DHT22;62797;49.740;10.154;2024-01-25T07:11:12;5.60;56.00
74364;DHT22;62797;49.740;10.154;2024-01-25T07:13:37;5.60;57.20
74364;DHT22;62797;49.740;10.154;2024-01-25T07:16:04;5.60;57.00
74364;DHT22;62797;49.740;10.154;2024-01-25T07:18:30;5.70;56.70
74364;DHT22;62797;49.740;10.154;2024-01-25T07:20:56;5.70;56.60
74364;DHT22;62797;49.740;10.154;2024-01-25T07:23:25;5.70;56.40
74364;DHT22;62797;49.740;10.154;2024-01-25T07:25:52;5.70;56.30
74364;DHT22;62797;49.740;10.154;2024-01-25T07:28:18;5.60;56.10
74364;DHT22;62797;49.740;10.154;2024-01-25T07:30:47;5.70;56.20
74364;DHT22;62797;49.740;10.154;2024-01-25T07:33:13;5.70;56.00
74364;DHT22;62797;49.740;10.154;2024-01-25T07:35:39;5.60;55.70
74364;DHT22;62797;49.740;10.154;2024-01-25T07:38:11;5.60;56.10
74364;DHT22;62797;49.740;10.154;2024-01-25T07:40:37;5.50;55.60
74364;DHT22;62797;49.740;10.154;2024-01-25T07:43:03;5.30;55.90
74364;DHT22;62797;49.740;10.154;2024-01-25T07:45:30;5.20;56.30
74364;DHT22;62797;49.740;10.154;2024-01-25T07:47:56;5.10;58.60
74364;DHT22;62797;49.740;10.154;2024-01-25T07:50:22;5.20;58.80
74364;DHT22;62797;49.740;10.154;2024-01-25T07:52:48;5.30;59.40
74364;DHT22;62797;49.740;10.154;2024-01-25T07:55:16;5.40;58.30
74364;DHT22;62797;49.740;10.154;2024-01-25T07:57:41;5.40;58.00
74364;DHT22;62797;49.740;10.154;2024-01-25T08:00:08;5.40;57.60
74364;DHT22;62797;49.740;10.154;2024-01-25T08:02:37;5.50;57.50
74364;DHT22;62797;49.740;10.154;2024-01-25T08:05:05;5.50;57.30
74364;DHT22;62797;49.740;10.154;2024-01-25T08:07:31;5.50;57.70
74364;DHT22;62797;49.740;10.154;2024-01-25T08:09:59;5.40;57.60
74364;DHT22;62797;49.740;10.154;2024-01-25T08:12:25;5.30;58.20
74364;DHT22;62797;49.740;10.154;2024-01-25T08:14:51;5.30;58.70
74364;DHT22;62797;49.740;10.154;2024-01-25T08:17:17;5.20;58.90
74364;DHT22;62797;49.740;10.154;2024-01-25T08:19:44;5.20;59.00
74364;DHT22;62797;49.740;10.154;2024-01-25T08:22:10;5.20;59.10
74364;DHT22;62797;49.740;10.154;2024-01-25T08:24:36;5.30;59.10
74364;DHT22;62797;49.740;10.154;2024-01-25T08:27:02;5.40;59.00
74364;DHT22;62797;49.740;10.154;2024-01-25T08:29:33;5.50;58.60
74364;DHT22;62797;49.740;10.154;2024-01-25T08:32:04;5.50;58.20
74364;DHT22;62797;49.740;10.154;2024-01-25T08:34:30;5.50;57.90
74364;DHT22;62797;49.740;10.154;2024-01-25T08:36:55;5.60;57.80
74364;DHT22;62797;49.740;10.154;2024-01-25T08:39:21;5.70;57.80
74364;DHT22;62797;49.740;10.154;2024-01-25T08:41:47;5.70;58.30
74364;DHT22;62797;49.740;10.154;2024-01-25T08:44:15;5.70;58.50
74364;DHT22;62797;49.740;10.154;2024-01-25T08:46:40;5.70;58.80
74364;DHT22;62797;49.740;10.154;2024-01-25T08:49:08;5.80;58.60
74364;DHT22;62797;49.740;10.154;2024-01-25T08:51:35;5.80;58.60
74364;DHT22;62797;49.740;10.154;2024-01-25T08:54:01;5.80;58.70
74364;DHT22;62797;49.740;10.154;2024-01-25T08:56:29;5.90;58.60
74364;DHT22;62797;49.740;10.154;2024-01-25T08:58:55;6.00;58.90
74364;DHT22;62797;49.740;10.154;2024-01-25T09:01:20;6.20;57.50
74364;DHT22;62797;49.740;10.154;2024-01-25T09:03:47;6.20;56.90
74364;DHT22;62797;49.740;10.154;2024-01-25T09:06:12;6.30;56.90
74364;DHT22;62797;49.740;10.154;2024-01-25T09:08:38;6.40;55.70
74364;DHT22;62797;49.740;10.154;2024-01-25T09:11:03;6.60;55.20
74364;DHT22;62797;49.740;10.154;2024-01-25T09:13:30;6.70;54.20
74364;DHT22;62797;49.740;10.154;2024-01-25T09:15:56;6.80;54.50
74364;DHT22;62797;49.740;10.154;2024-01-25T09:18:22;6.90;53.90
74364;DHT22;62797;49.740;10.154;2024-01-25T09:20:48;7.00;53.50
74364;DHT22;62797;49.740;10.154;2024-01-25T09:23:14;7.10;52.50
74364;DHT22;62797;49.740;10.154;2024-01-25T09:25:45;7.30;52.60
74364;DHT22;62797;49.740;10.154;2024-01-25T09:28:11;7.40;52.30
74364;DHT22;62797;49.740;10.154;2024-01-25T09:30:40;7.50;51.80
74364;DHT22;62797;49.740;10.154;2024-01-25T09:33:07;7.60;51.40
74364;DHT22;62797;49.740;10.154;2024-01-25T09:35:32;7.60;50.60
74364;DHT22;62797;49.740;10.154;2024-01-25T09:37:58;7.60;50.10
74364;DHT22;62797;49.740;10.154;2024-01-25T09:40:24;7.60;51.00
74364;DHT22;62797;49.740;10.154;2024-01-25T09:42:52;7.70;50.00
74364;DHT22;62797;49.740;10.154;2024-01-25T09:45:18;7.80;48.90
74364;DHT22;62797;49.740;10.154;2024-01-25T09:47:48;7.90;49.40
74364;DHT22;62797;49.740;10.154;2024-01-25T09:50:14;8.00;48.80
74364;DHT22;62797;49.740;10.154;2024-01-25T09:52:43;8.00;48.70
74364;DHT22;62797;49.740;10.154;2024-01-25T09:55:12;8.10;48.30
74364;DHT22;62797;49.740;10.154;2024-01-25T09:57:46;8.10;48.80
74364;DHT22;62797;49.740;10.154;2024-01-25T10:00:13;8.10;48.20
74364;DHT22;62797;49.740;10.154;2024-01-25T10:02:38;8.30;47.50
74364;DHT22;62797;49.740;10.154;2024-01-25T10:05:05;8.50;47.20
74364;DHT22;62797;49.740;10.154;2024-01-25T10:10:03;8.60;46.30
74364;DHT22;62797;49.740;10.154;2024-01-25T10:12:31;8.70;46.00
74364;DHT22;62797;49.740;10.154;2024-01-25T10:14:56;8.70;44.80
74364;DHT22;62797;49.740;10.154;2024-01-25T10:17:22;8.80;44.30
74364;DHT22;62797;49.740;10.154;2024-01-25T10:19:47;8.90;43.50
74364;DHT22;62797;49.740;10.154;2024-01-25T10:22:14;9.00;42.60
74364;DHT22;62797;49.740;10.154;2024-01-25T10:24:40;9.00;38.70
74364;DHT22;62797;49.740;10.154;2024-01-25T10:27:07;8.90;39.30
74364;DHT22;62797;49.740;10.154;2024-01-25T10:29:36;9.00;38.90
74364;DHT22;62797;49.740;10.154;2024-01-25T10:32:05;8.90;38.50
74364;DHT22;62797;49.740;10.154;2024-01-25T10:34:32;9.00;38.00
74364;DHT22;62797;49.740;10.154;2024-01-25T10:37:01;8.90;38.80
74364;DHT22;62797;49.740;10.154;2024-01-25T10:39:28;8.90;38.90
74364;DHT22;62797;49.740;10.154;2024-01-25T10:41:54;8.90;39.10
74364;DHT22;62797;49.740;10.154;2024-01-25T10:44:21;8.90;39.70
74364;DHT22;62797;49.740;10.154;2024-01-25T10:46:49;9.00;37.50
74364;DHT22;62797;49.740;10.154;2024-01-25T10:49:17;8.90;34.60
74364;DHT22;62797;49.740;10.154;2024-01-25T10:51:44;8.90;35.20
74364;DHT22;62797;49.740;10.154;2024-01-25T10:54:14;8.90;36.80
74364;DHT22;62797;49.740;10.154;2024-01-25T10:56:43;9.00;34.60
74364;DHT22;62797;49.740;10.154;2024-01-25T10:59:11;9.20;33.90
74364;DHT22;62797;49.740;10.154;2024-01-25T11:01:37;9.20;34.50
74364;DHT22;62797;49.740;10.154;2024-01-25T11:04:11;9.10;34.80
74364;DHT22;62797;49.740;10.154;2024-01-25T11:06:37;9.10;32.50
74364;DHT22;62797;49.740;10.154;2024-01-25T11:09:06;9.20;32.30
74364;DHT22;62797;49.740;10.154;2024-01-25T11:11:32;9.20;32.20
74364;DHT22;62797;49.740;10.154;2024-01-25T11:13:59;9.20;31.50
74364;DHT22;62797;49.740;10.154;2024-01-25T11:16:31;9.30;32.20
74364;DHT22;62797;49.740;10.154;2024-01-25T11:18:59;9.30;30.20
74364;DHT22;62797;49.740;10.154;2024-01-25T11:21:43;9.30;31.60
74364;DHT22;62797;49.740;10.154;2024-01-25T11:24:27;9.40;30.60
74364;DHT22;62797;49.740;10.154;2024-01-25T11:26:54;9.50;30.00
74364;DHT22;62797;49.740;10.154;2024-01-25T11:29:21;9.50;30.30
74364;DHT22;62797;49.740;10.154;2024-01-25T11:31:49;9.60;30.00
74364;DHT22;62797;49.740;10.154;2024-01-25T11:34:15;9.60;30.90
74364;DHT22;62797;49.740;10.154;2024-01-25T11:36:45;9.70;31.40
74364;DHT22;62797;49.740;10.154;2024-01-25T11:39:13;9.60;29.50
74364;DHT22;62797;49.740;10.154;2024-01-25T11:41:39;9.50;29.50
74364;DHT22;62797;49.740;10.154;2024-01-25T11:44:04;9.50;29.60
74364;DHT22;62797;49.740;10.154;2024-01-25T11:46:31;9.40;30.20
74364;DHT22;62797;49.740;10.154;2024-01-25T11:49:00;9.50;30.30
74364;DHT22;62797;49.740;10.154;2024-01-25T11:51:26;9.40;30.20
74364;DHT22;62797;49.740;10.154;2024-01-25T11:53:51;9.50;31.10
74364;DHT22;62797;49.740;10.154;2024-01-25T11:56:20;9.60;29.70
74364;DHT22;62797;49.740;10.154;2024-01-25T11:58:47;9.70;29.60
74364;DHT22;62797;49.740;10.154;2024-01-25T12:01:13;9.80;29.20
74364;DHT22;62797;49.740;10.154;2024-01-25T12:03:40;9.90;29.20
74364;DHT22;62797;49.740;10.154;2024-01-25T12:06:06;9.90;29.10
74364;DHT22;62797;49.740;10.154;2024-01-25T12:08:34;9.80;28.60
74364;DHT22;62797;49.740;10.154;2024-01-25T12:11:09;9.60;29.20
74364;DHT22;62797;49.740;10.154;2024-01-25T12:13:38;9.60;30.20
74364;DHT22;62797;49.740;10.154;2024-01-25T12:16:04;9.60;30.10
74364;DHT22;62797;49.740;10.154;2024-01-25T12:18:30;9.70;30.80
74364;DHT22;62797;49.740;10.154;2024-01-25T12:20:59;9.80;28.20
74364;DHT22;62797;49.740;10.154;2024-01-25T12:23:35;9.80;29.00
74364;DHT22;62797;49.740;10.154;2024-01-25T12:26:03;9.70;29.60
74364;DHT22;62797;49.740;10.154;2024-01-25T12:28:30;9.70;29.30
74364;DHT22;62797;49.740;10.154;2024-01-25T12:30:56;9.70;28.70
74364;DHT22;62797;49.740;10.154;2024-01-25T12:33:22;9.60;29.60
74364;DHT22;62797;49.740;10.154;2024-01-25T12:35:48;9.80;29.50
74364;DHT22;62797;49.740;10.154;2024-01-25T12:38:14;9.80;29.50
74364;DHT22;62797;49.740;10.154;2024-01-25T12:40:42;9.80;29.40
74364;DHT22;62797;49.740;10.154;2024-01-25T12:43:09;9.70;29.70
74364;DHT22;62797;49.740;10.154;2024-01-25T12:45:34;9.80;29.70
74364;DHT22;62797;49.740;10.154;2024-01-25T12:48:00;9.70;29.80
74364;DHT22;62797;49.740;10.154;2024-01-25T12:50:28;9.70;29.80
74364;DHT22;62797;49.740;10.154;2024-01-25T12:52:53;9.60;30.20
74364;DHT22;62797;49.740;10.154;2024-01-25T12:55:19;9.70;29.70
74364;DHT22;62797;49.740;10.154;2024-01-25T12:57:45;9.70;30.80
74364;DHT22;62797;49.740;10.154;2024-01-25T13:00:10;9.80;29.90
74364;DHT22;62797;49.740;10.154;2024-01-25T13:02:37;9.90;29.80
74364;DHT22;62797;49.740;10.154;2024-01-25T13:05:02;10.00;29.60
74364;DHT22;62797;49.740;10.154;2024-01-25T13:07:29;10.00;29.50
74364;DHT22;62797;49.740;10.154;2024-01-25T13:09:54;10.10;28.40
74364;DHT22;62797;49.740;10.154;2024-01-25T13:12:20;10.00;28.00
74364;DHT22;62797;49.740;10.154;2024-01-25T13:14:46;10.10;26.70
74364;DHT22;62797;49.740;10.154;2024-01-25T13:17:11;10.00;26.50
74364;DHT22;62797;49.740;10.154;2024-01-25T13:19:37;9.90;26.90
74364;DHT22;62797;49.740;10.154;2024-01-25T13:22:03;9.70;27.30
74364;DHT22;62797;49.740;10.154;2024-01-25T13:24:28;9.80;28.10
74364;DHT22;62797;49.740;10.154;2024-01-25T13:26:54;9.80;28.00
74364;DHT22;62797;49.740;10.154;2024-01-25T13:29:20;9.80;28.10
74364;DHT22;62797;49.740;10.154;2024-01-25T13:31:45;9.90;28.70
74364;DHT22;62797;49.740;10.154;2024-01-25T13:34:11;9.90;28.20
74364;DHT22;62797;49.740;10.154;2024-01-25T13:36:37;9.90;29.10
74364;DHT22;62797;49.740;10.154;2024-01-25T13:39:02;9.80;28.90
74364;DHT22;62797;49.740;10.154;2024-01-25T13:41:29;10.00;29.70
74364;DHT22;62797;49.740;10.154;2024-01-25T13:43:54;10.20;29.40
74364;DHT22;62797;49.740;10.154;2024-01-25T13:46:20;10.40;29.60
74364;DHT22;62797;49.740;10.154;2024-01-25T13:48:46;10.70;29.40
74364;DHT22;62797;49.740;10.154;2024-01-25T13:51:12;10.80;28.20
74364;DHT22;62797;49.740;10.154;2024-01-25T13:53:38;10.70;28.90
74364;DHT22;62797;49.740;10.154;2024-01-25T13:56:04;10.70;27.60
74364;DHT22;62797;49.740;10.154;2024-01-25T13:58:29;10.40;27.80
74364;DHT22;62797;49.740;10.154;2024-01-25T14:00:55;10.40;28.20
74364;DHT22;62797;49.740;10.154;2024-01-25T14:03:21;10.40;28.10
74364;DHT22;62797;49.740;10.154;2024-01-25T14:05:46;10.40;27.80
74364;DHT22;62797;49.740;10.154;2024-01-25T14:08:12;10.20;28.20
74364;DHT22;62797;49.740;10.154;2024-01-25T14:10:38;10.10;28.70
74364;DHT22;62797;49.740;10.154;2024-01-25T14:13:04;10.10;29.40
74364;DHT22;62797;49.740;10.154;2024-01-25T14:15:29;10.00;29.30
74364;DHT22;62797;49.740;10.154;2024-01-25T14:17:55;10.00;29.00
74364;DHT22;62797;49.740;10.154;2024-01-25T14:20:21;10.00;29.30
74364;DHT22;62797;49.740;10.154;2024-01-25T14:22:48;10.10;29.60
74364;DHT22;62797;49.740;10.154;2024-01-25T14:25:14;10.00;29.60
74364;DHT22;62797;49.740;10.154;2024-01-25T14:27:39;9.90;29.30
74364;DHT22;62797;49.740;10.154;2024-01-25T14:30:06;9.90;29.50
74364;DHT22;62797;49.740;10.154;2024-01-25T14:32:32;9.80;29.40
74364;DHT22;62797;49.740;10.154;2024-01-25T14:34:58;9.80;29.80
74364;DHT22;62797;49.740;10.154;2024-01-25T14:37:24;9.70;29.30
74364;DHT22;62797;49.740;10.154;2024-01-25T14:39:50;9.60;29.70
74364;DHT22;62797;49.740;10.154;2024-01-25T14:42:15;9.60;29.70
74364;DHT22;62797;49.740;10.154;2024-01-25T14:44:44;9.60;29.60
74364;DHT22;62797;49.740;10.154;2024-01-25T14:47:10;9.50;29.50
74364;DHT22;62797;49.740;10.154;2024-01-25T14:49:37;9.40;29.40
74364;DHT22;62797;49.740;10.154;2024-01-25T14:52:03;9.40;29.90
74364;DHT22;62797;49.740;10.154;2024-01-25T14:54:29;9.30;30.50
74364;DHT22;62797;49.740;10.154;2024-01-25T14:56:55;9.30;30.30
74364;DHT22;62797;49.740;10.154;2024-01-25T14:59:20;9.20;30.70
74364;DHT22;62797;49.740;10.154;2024-01-25T15:01:47;9.10;30.80
74364;DHT22;62797;49.740;10.154;2024-01-25T15:04:13;9.10;31.60
74364;DHT22;62797;49.740;10.154;2024-01-25T15:06:41;9.00;31.80
74364;DHT22;62797;49.740;10.154;2024-01-25T15:12:10;9.00;33.20
74364;DHT22;62797;49.740;10.154;2024-01-25T15:14:36;8.90;33.40
74364;DHT22;62797;49.740;10.154;2024-01-25T15:17:01;8.80;33.90
74364;DHT22;62797;49.740;10.154;2024-01-25T15:19:27;8.70;33.30
74364;DHT22;62797;49.740;10.154;2024-01-25T15:21:53;8.70;33.70
74364;DHT22;62797;49.740;10.154;2024-01-25T15:24:18;8.70;34.40
74364;DHT22;62797;49.740;10.154;2024-01-25T15:26:44;8.60;34.80
74364;DHT22;62797;49.740;10.154;2024-01-25T15:29:10;8.60;35.40
74364;DHT22;62797;49.740;10.154;2024-01-25T15:31:35;8.50;35.60
74364;DHT22;62797;49.740;10.154;2024-01-25T15:34:01;8.40;36.30
74364;DHT22;62797;49.740;10.154;2024-01-25T15:36:27;8.30;36.90